createdAt,value
2023-01-24T00:01:30.667Z,97166.60
2023-01-24T00:03:58.966Z,97166.70
2023-01-24T00:06:27.191Z,97166.09
2023-01-24T00:08:55.262Z,97166.52
2023-01-24T00:11:23.296Z,97167.12
2023-01-24T00:13:51.853Z,97166.72
2023-01-24T00:16:24.526Z,97165.08
2023-01-24T00:18:54.469Z,97167.86
2023-01-24T00:21:26.426Z,97169.16
2023-01-24T00:23:56.667Z,97173.26
2023-01-24T00:26:27.187Z,97175.80
2023-01-24T00:28:56.576Z,97176.51
2023-01-24T00:31:26.677Z,97178.39
2023-01-24T00:33:58.663Z,97181.67
2023-01-24T00:36:27.100Z,97181.54
2023-01-24T00:38:56.157Z,97179.71
2023-01-24T00:41:28.361Z,97174.18
2023-01-24T00:43:57.092Z,97171.40
2023-01-24T00:46:25.789Z,97170.33
2023-01-24T00:48:55.062Z,97169.98
2023-01-24T00:51:24.440Z,97169.83
2023-01-24T00:53:54.017Z,97170.52
2023-01-24T00:56:23.689Z,97171.20
2023-01-24T00:58:51.848Z,97171.71
2023-01-24T01:01:21.173Z,97172.54
2023-01-24T01:03:49.334Z,97172.31
2023-01-24T01:06:17.738Z,97172.78
2023-01-24T01:08:46.858Z,97171.23
2023-01-24T01:11:15.697Z,97169.15
2023-01-24T01:13:44.628Z,97168.05
2023-01-24T01:16:17.932Z,97165.94
2023-01-24T01:18:51.601Z,97166.40
2023-01-24T01:21:27.876Z,97167.20
2023-01-24T01:24:15.917Z,97167.95
2023-01-24T01:26:48.968Z,97163.75
2023-01-24T01:29:17.113Z,97164.83
2023-01-24T01:31:46.487Z,97166.75
2023-01-24T01:34:15.167Z,97168.50
2023-01-24T01:36:43.843Z,97169.04
2023-01-24T01:39:13.254Z,97170.80
2023-01-24T01:41:43.044Z,97168.30
2023-01-24T01:44:47.745Z,97165.96
2023-01-24T01:47:36.074Z,97167.37
2023-01-24T01:50:34.179Z,97168.61
2023-01-24T01:53:22.005Z,97167.30
2023-01-24T01:55:57.625Z,97166.31
2023-01-24T01:58:29.140Z,97166.69
2023-01-24T02:01:25.474Z,97165.69
2023-01-24T02:04:01.603Z,97164.88
2023-01-24T02:06:50.886Z,97165.62
2023-01-24T02:09:43.465Z,97162.79
2023-01-24T02:12:37.634Z,97161.13
2023-01-24T02:15:31.265Z,97161.02
2023-01-24T02:18:04.517Z,97160.55
2023-01-24T02:20:50.998Z,97158.20
2023-01-24T02:23:32.721Z,97159.09
2023-01-24T02:26:04.672Z,97155.05
2023-01-24T02:28:36.153Z,97156.82
2023-01-24T02:31:05.874Z,97158.06
2023-01-24T02:33:40.354Z,97154.70
2023-01-24T02:36:27.634Z,97150.30
2023-01-24T02:39:06.349Z,97153.92
2023-01-24T02:41:53.340Z,97153.09
2023-01-24T02:44:34.223Z,97149.20
2023-01-24T02:47:09.679Z,97144.45
2023-01-24T02:49:55.863Z,97142.95
2023-01-24T02:53:23.647Z,97147.23
2023-01-24T02:56:12.823Z,97150.20
2023-01-24T02:58:56.550Z,97150.07
2023-01-24T03:02:10.473Z,97144.31
2023-01-24T03:04:39.414Z,97140.77
2023-01-24T03:07:43.443Z,97139.09
2023-01-24T03:10:25.804Z,97145.42
2023-01-24T03:13:33.309Z,97143.92
2023-01-24T03:16:22.574Z,97142.08
2023-01-24T03:19:10.604Z,97139.03
2023-01-24T03:21:57.873Z,97139.90
2023-01-24T03:24:46.407Z,97142.17
2023-01-24T03:27:53.528Z,97145.61
2023-01-24T03:30:45.075Z,97145.80
2023-01-24T03:33:33.133Z,97149.55
2023-01-24T03:36:08.537Z,97148.54
2023-01-24T03:38:56.524Z,97144.11
2023-01-24T03:42:06.806Z,97141.58
2023-01-24T03:45:01.701Z,97139.21
2023-01-24T03:48:16.375Z,97139.20
2023-01-24T03:51:44.338Z,97139.36
2023-01-24T03:55:17.949Z,97136.44
2023-01-24T03:57:53.563Z,97136.36
2023-01-24T04:00:23.104Z,97134.42
2023-01-24T04:03:37.672Z,97129.77
2023-01-24T04:06:30.076Z,97130.34
2023-01-24T04:09:27.517Z,97132.46
2023-01-24T04:11:57.635Z,97132.21
2023-01-24T04:14:26.350Z,97130.45
2023-01-24T04:17:25.179Z,97131.40
2023-01-24T04:20:16.370Z,97133.73
2023-01-24T04:22:53.213Z,97133.34
2023-01-24T04:25:25.175Z,97131.91
2023-01-24T04:27:53.989Z,97131.85
2023-01-24T04:30:31.107Z,97132.52
2023-01-24T04:33:05.952Z,97133.00
2023-01-24T04:35:39.355Z,97130.05
2023-01-24T04:38:16.945Z,97134.44
2023-01-24T04:41:15.562Z,97135.74
2023-01-24T04:43:53.057Z,97136.55
2023-01-24T04:46:22.033Z,97139.58
2023-01-24T04:48:58.040Z,97138.02
2023-01-24T04:51:36.419Z,97136.31
2023-01-24T04:54:07.015Z,97140.73
2023-01-24T04:56:37.066Z,97139.38
2023-01-24T04:59:05.965Z,97138.04
2023-01-24T05:01:34.186Z,97138.23
2023-01-24T05:04:09.480Z,97141.31
2023-01-24T05:06:40.856Z,97140.83
2023-01-24T05:09:15.375Z,97142.45
2023-01-24T05:11:50.998Z,97147.84
2023-01-24T05:14:20.393Z,97146.94
2023-01-24T05:17:09.119Z,97148.55
2023-01-24T05:19:38.724Z,97152.21
2023-01-24T05:22:08.670Z,97153.84
2023-01-24T05:25:00.346Z,97154.93
2023-01-24T05:27:29.016Z,97156.58
2023-01-24T05:30:15.388Z,97162.09
2023-01-24T05:32:44.353Z,97164.71
2023-01-24T05:35:12.966Z,97165.30
2023-01-24T05:37:42.370Z,97163.15
2023-01-24T05:40:11.546Z,97166.94
2023-01-24T05:42:44.341Z,97180.42
2023-01-24T05:45:12.496Z,97182.84
2023-01-24T05:47:42.162Z,97185.24
2023-01-24T05:50:12.453Z,97188.83
2023-01-24T05:52:40.664Z,97191.91
2023-01-24T05:55:09.423Z,97196.03
2023-01-24T05:57:41.047Z,97197.26
2023-01-24T06:00:16.825Z,97199.99
2023-01-24T06:02:49.746Z,97201.03
2023-01-24T06:05:18.428Z,97201.05
2023-01-24T06:07:46.541Z,97203.45
2023-01-24T06:10:15.416Z,97207.04
2023-01-24T06:12:53.927Z,97210.77
2023-01-24T06:15:22.169Z,97209.09
2023-01-24T06:17:58.062Z,97211.47
2023-01-24T06:20:27.120Z,97214.70
2023-01-24T06:23:05.465Z,97215.37
2023-01-24T06:25:35.973Z,97220.28
2023-01-24T06:28:04.992Z,97222.30
2023-01-24T06:30:33.429Z,97220.77
2023-01-24T06:33:26.738Z,97223.64
2023-01-24T06:36:25.189Z,97221.05
2023-01-24T06:38:54.460Z,97222.71
2023-01-24T06:41:23.187Z,97219.11
2023-01-24T06:43:51.870Z,97220.43
2023-01-24T06:46:21.422Z,97219.54
2023-01-24T06:48:49.591Z,97224.61
2023-01-24T06:51:17.871Z,97229.32
2023-01-24T06:53:46.014Z,97228.08
2023-01-24T06:56:14.027Z,97229.23
2023-01-24T06:58:42.083Z,97228.34
2023-01-24T07:01:10.639Z,97225.22
2023-01-24T07:03:39.369Z,97225.81
2023-01-24T07:06:07.520Z,97229.14
2023-01-24T07:08:35.539Z,97228.86
2023-01-24T07:11:04.152Z,97230.95
2023-01-24T07:13:32.252Z,97229.45
2023-01-24T07:16:03.727Z,97233.75
2023-01-24T07:18:31.894Z,97234.75
2023-01-24T07:21:00.280Z,97229.64
2023-01-24T07:23:33.592Z,97228.41
2023-01-24T07:26:04.701Z,97232.34
2023-01-24T07:28:32.913Z,97236.92
2023-01-24T07:31:04.653Z,97234.36
2023-01-24T07:33:33.811Z,97232.48
2023-01-24T07:36:02.226Z,97234.48
2023-01-24T07:38:30.704Z,97238.02
2023-01-24T07:40:59.123Z,97234.04
2023-01-24T07:43:27.150Z,97236.36
2023-01-24T07:45:55.255Z,97235.79
2023-01-24T07:48:25.692Z,97234.79
2023-01-24T07:50:54.221Z,97237.08
2023-01-24T07:53:23.629Z,97238.70
2023-01-24T07:56:02.022Z,97236.95
2023-01-24T07:59:10.833Z,97238.10
2023-01-24T08:01:46.802Z,97237.38
2023-01-24T08:04:14.932Z,97237.08
2023-01-24T08:07:02.911Z,97241.83
2023-01-24T08:09:31.354Z,97242.45
2023-01-24T08:11:59.393Z,97243.64
2023-01-24T08:14:27.679Z,97246.25
2023-01-24T08:16:55.687Z,97247.02
2023-01-24T08:19:46.327Z,97247.60
2023-01-24T08:22:15.471Z,97246.96
2023-01-24T08:24:44.584Z,97248.79
2023-01-24T08:27:13.208Z,97247.52
2023-01-24T08:29:41.749Z,97247.39
2023-01-24T08:32:11.223Z,97247.64
2023-01-24T08:34:39.390Z,97251.30
2023-01-24T08:37:08.520Z,97251.63
2023-01-24T08:39:36.726Z,97248.84
2023-01-24T08:42:05.849Z,97252.02
2023-01-24T08:44:34.022Z,97247.04
2023-01-24T08:47:02.957Z,97245.81
2023-01-24T08:49:31.031Z,97251.09
2023-01-24T08:52:01.804Z,97251.04
2023-01-24T08:54:33.288Z,97250.20
2023-01-24T08:57:01.241Z,97251.40
2023-01-24T08:59:29.269Z,97251.50
2023-01-24T09:01:57.355Z,97250.52
2023-01-24T09:04:27.672Z,97249.82
2023-01-24T09:06:55.686Z,97246.92
2023-01-24T09:09:25.501Z,97247.05
2023-01-24T09:11:54.307Z,97245.35
2023-01-24T09:14:22.631Z,97243.70
2023-01-24T09:16:50.602Z,97242.19
2023-01-24T09:19:18.541Z,97245.91
2023-01-24T09:21:49.773Z,97245.33
2023-01-24T09:24:17.973Z,97242.24
2023-01-24T09:26:46.545Z,97241.16
2023-01-24T09:29:14.589Z,97238.39
2023-01-24T09:31:42.750Z,97242.88
2023-01-24T09:34:10.851Z,97240.05
2023-01-24T09:36:38.847Z,97233.66
2023-01-24T09:39:06.947Z,97233.05
2023-01-24T09:42:11.042Z,97229.21
2023-01-24T09:44:54.349Z,97222.94
2023-01-24T09:47:33.448Z,97221.10
2023-01-24T09:50:10.967Z,97221.77
2023-01-24T09:52:44.245Z,97220.38
2023-01-24T09:55:18.119Z,97214.33
2023-01-24T09:57:58.145Z,97215.73
2023-01-24T10:00:36.850Z,97215.48
2023-01-24T10:03:15.409Z,97214.65
2023-01-24T10:05:48.921Z,97210.20
2023-01-24T10:08:41.198Z,97213.77
2023-01-24T10:11:30.869Z,97210.55
2023-01-24T10:14:19.524Z,97205.44
2023-01-24T10:17:06.185Z,97202.52
2023-01-24T10:20:12.848Z,97196.47
2023-01-24T10:23:06.086Z,97189.80
2023-01-24T10:25:54.213Z,97191.83
2023-01-24T10:28:39.757Z,97190.30
2023-01-24T10:31:38.800Z,97189.70
2023-01-24T10:34:15.715Z,97191.87
2023-01-24T10:36:58.064Z,97194.31
2023-01-24T10:39:28.464Z,97194.91
2023-01-24T10:41:56.585Z,97190.36
2023-01-24T10:44:35.627Z,97190.59
2023-01-24T10:47:11.026Z,97189.32
2023-01-24T10:49:44.374Z,97189.25
2023-01-24T10:52:23.085Z,97182.68
2023-01-24T10:54:56.669Z,97183.02
2023-01-24T10:57:27.529Z,97183.27
2023-01-24T10:59:55.996Z,97186.14
2023-01-24T11:02:25.982Z,97184.67
2023-01-24T11:05:06.966Z,97182.92
2023-01-24T11:07:39.909Z,97178.59
2023-01-24T11:10:29.407Z,97173.86
2023-01-24T11:13:02.761Z,97178.67
2023-01-24T11:15:34.704Z,97177.29
2023-01-24T11:18:11.637Z,97169.30
2023-01-24T11:20:40.105Z,97166.34
2023-01-24T11:23:22.255Z,97165.94
2023-01-24T11:26:05.225Z,97166.31
2023-01-24T11:28:36.967Z,97165.42
2023-01-24T11:31:29.341Z,97159.16
2023-01-24T11:34:09.576Z,97155.45
2023-01-24T11:37:05.778Z,97152.31
2023-01-24T11:40:22.373Z,97148.84
2023-01-24T11:43:03.661Z,97146.14
2023-01-24T11:46:15.909Z,97143.83
2023-01-24T11:49:19.020Z,97143.05
2023-01-24T11:51:59.808Z,97148.86
2023-01-24T11:54:52.586Z,97143.05
2023-01-24T11:57:54.678Z,97143.75
2023-01-24T12:00:38.334Z,97140.64
2023-01-24T12:03:23.552Z,97137.17
2023-01-24T12:06:05.637Z,97140.59
2023-01-24T12:09:12.719Z,97141.20
2023-01-24T12:12:06.947Z,97138.67
2023-01-24T12:14:40.782Z,97141.27
2023-01-24T12:17:38.645Z,97145.59
2023-01-24T12:20:30.464Z,97143.70
2023-01-24T12:23:41.495Z,97148.10
2023-01-24T12:26:31.668Z,97153.36
2023-01-24T12:29:21.033Z,97150.62
2023-01-24T12:31:49.027Z,97150.52
2023-01-24T12:34:40.626Z,97147.54
2023-01-24T12:37:20.489Z,97145.45
2023-01-24T12:40:12.906Z,97144.08
2023-01-24T12:43:10.545Z,97145.64
2023-01-24T12:45:45.448Z,97150.50
2023-01-24T12:48:30.002Z,97150.82
2023-01-24T12:51:08.444Z,97153.60
2023-01-24T12:54:02.538Z,97154.34
2023-01-24T12:57:12.299Z,97156.51
2023-01-24T12:59:40.427Z,97156.53
2023-01-24T13:02:35.262Z,97158.85
2023-01-24T13:05:09.253Z,97157.29
2023-01-24T13:07:42.970Z,97157.94
2023-01-24T13:10:19.735Z,97157.52
2023-01-24T13:12:49.185Z,97158.73
2023-01-24T13:15:22.575Z,97158.12
2023-01-24T13:18:05.623Z,97159.89
2023-01-24T13:20:50.063Z,97156.77
2023-01-24T13:23:47.309Z,97160.45
2023-01-24T13:26:50.968Z,97158.72
2023-01-24T13:29:36.837Z,97156.79
2023-01-24T13:32:19.891Z,97154.23
2023-01-24T13:34:57.308Z,97155.70
2023-01-24T13:37:26.869Z,97157.29
2023-01-24T13:40:22.515Z,97151.34
2023-01-24T13:42:51.286Z,97152.63
2023-01-24T13:45:26.682Z,97154.09
2023-01-24T13:47:56.471Z,97155.59
2023-01-24T13:50:29.005Z,97157.20
2023-01-24T13:52:59.034Z,97155.71
2023-01-24T13:55:31.051Z,97159.70
2023-01-24T13:58:08.583Z,97162.63
2023-01-24T14:00:42.712Z,97165.22
2023-01-24T14:03:29.646Z,97165.35
2023-01-24T14:06:11.505Z,97163.77
2023-01-24T14:08:42.361Z,97162.95
2023-01-24T14:11:19.316Z,97166.25
2023-01-24T14:13:56.209Z,97165.63
2023-01-24T14:16:36.451Z,97164.98
2023-01-24T14:19:22.546Z,97162.91
2023-01-24T14:21:59.944Z,97166.87
2023-01-24T14:24:34.362Z,97170.70
2023-01-24T14:27:19.166Z,97170.34
2023-01-24T14:29:54.849Z,97169.36
2023-01-24T14:32:27.888Z,97166.94
2023-01-24T14:35:24.476Z,97171.63
2023-01-24T14:37:52.987Z,97170.65
2023-01-24T14:40:30.578Z,97171.83
2023-01-24T14:43:04.101Z,97170.48
2023-01-24T14:45:33.838Z,97171.59
2023-01-24T14:48:07.960Z,97172.01
2023-01-24T14:50:38.772Z,97176.61
2023-01-24T14:53:38.979Z,97179.31
2023-01-24T14:56:13.287Z,97183.05
2023-01-24T14:58:41.525Z,97191.77
2023-01-24T15:01:28.703Z,97189.56
2023-01-24T15:03:57.829Z,97189.09
2023-01-24T15:06:28.308Z,97190.06
2023-01-24T15:09:01.604Z,97193.14
2023-01-24T15:11:35.354Z,97194.63
2023-01-24T15:14:16.593Z,97193.90
2023-01-24T15:16:52.231Z,97194.70
2023-01-24T15:19:23.901Z,97196.86
2023-01-24T15:21:54.565Z,97199.00
2023-01-24T15:24:31.245Z,97200.23
2023-01-24T15:27:00.172Z,97201.09
2023-01-24T15:29:47.815Z,97198.73
2023-01-24T15:32:29.976Z,97200.66
2023-01-24T15:35:19.220Z,97200.54
2023-01-24T15:37:47.241Z,97200.23
2023-01-24T15:40:21.153Z,97201.05
2023-01-24T15:43:08.162Z,97202.38
2023-01-24T15:45:39.373Z,97203.87
2023-01-24T15:48:21.805Z,97204.31
2023-01-24T15:51:11.006Z,97205.64
2023-01-24T15:53:42.044Z,97205.05
2023-01-24T15:56:16.759Z,97208.58
2023-01-24T15:58:47.812Z,97212.11
2023-01-24T16:01:16.364Z,97213.42
2023-01-24T16:03:44.320Z,97210.13
2023-01-24T16:06:12.213Z,97207.79
2023-01-24T16:08:40.199Z,97210.06
2023-01-24T16:11:09.469Z,97211.48
2023-01-24T16:13:40.581Z,97215.50
2023-01-24T16:16:13.185Z,97214.25
2023-01-24T16:18:42.326Z,97213.73
2023-01-24T16:21:10.884Z,97215.45
2023-01-24T16:23:38.813Z,97214.23
2023-01-24T16:26:20.365Z,97213.83
2023-01-24T16:28:48.505Z,97217.19
2023-01-24T16:31:16.643Z,97220.91
2023-01-24T16:33:44.728Z,97219.85
2023-01-24T16:36:14.610Z,97226.94
2023-01-24T16:38:44.951Z,97229.09
2023-01-24T16:41:14.675Z,97226.60
2023-01-24T16:43:45.755Z,97224.95
2023-01-24T16:46:21.798Z,97229.09
2023-01-24T16:48:50.613Z,97233.56
2023-01-24T16:51:20.348Z,97231.05
2023-01-24T16:53:48.307Z,97230.30
2023-01-24T16:56:16.201Z,97230.86
2023-01-24T16:58:44.171Z,97229.58
2023-01-24T17:01:12.253Z,97230.48
2023-01-24T17:03:40.684Z,97233.60
2023-01-24T17:06:10.423Z,97233.83
2023-01-24T17:08:38.640Z,97232.85
2023-01-24T17:11:11.309Z,97235.95
2023-01-24T17:13:39.256Z,97237.03
2023-01-24T17:16:10.125Z,97236.92
2023-01-24T17:18:38.404Z,97235.64
2023-01-24T17:21:10.375Z,97236.02
2023-01-24T17:23:39.266Z,97238.11
2023-01-24T17:26:11.010Z,97240.02
2023-01-24T17:28:40.303Z,97246.21
2023-01-24T17:31:19.817Z,97246.59
2023-01-24T17:33:48.433Z,97247.66
2023-01-24T17:36:19.104Z,97246.50
2023-01-24T17:38:48.211Z,97247.56
2023-01-24T17:41:18.029Z,97245.20
2023-01-24T17:43:52.889Z,97250.02
2023-01-24T17:46:21.717Z,97250.05
2023-01-24T17:48:49.734Z,97250.96
2023-01-24T17:51:18.765Z,97252.38
2023-01-24T17:53:47.705Z,97254.61
2023-01-24T17:56:17.230Z,97251.71
2023-01-24T17:58:45.575Z,97249.84
2023-01-24T18:01:15.715Z,97253.43
2023-01-24T18:03:44.870Z,97251.89
2023-01-24T18:06:13.631Z,97251.01
2023-01-24T18:08:41.606Z,97250.92
2023-01-24T18:11:15.387Z,97248.80
2023-01-24T18:13:43.926Z,97248.05
2023-01-24T18:16:17.738Z,97248.70
2023-01-24T18:18:45.788Z,97249.67
2023-01-24T18:21:22.748Z,97251.02
2023-01-24T18:23:55.422Z,97250.46
2023-01-24T18:26:25.241Z,97253.63
2023-01-24T18:28:54.235Z,97253.49
2023-01-24T18:31:22.296Z,97252.77
2023-01-24T18:33:54.920Z,97252.56
2023-01-24T18:36:23.521Z,97252.89
2023-01-24T18:38:52.896Z,97250.48
2023-01-24T18:41:21.610Z,97251.67
2023-01-24T18:43:49.794Z,97255.78
2023-01-24T18:46:17.868Z,97258.37
2023-01-24T18:48:46.001Z,97259.77
2023-01-24T18:51:19.548Z,97262.23
2023-01-24T18:53:49.362Z,97264.52
2023-01-24T18:56:18.627Z,97265.41
2023-01-24T18:58:47.434Z,97266.47
2023-01-24T19:01:24.651Z,97265.31
2023-01-24T19:03:53.828Z,97259.63
2023-01-24T19:06:30.403Z,97258.89
2023-01-24T19:09:04.356Z,97257.14
2023-01-24T19:11:35.535Z,97253.50
2023-01-24T19:14:04.627Z,97251.71
2023-01-24T19:16:40.523Z,97252.98
2023-01-24T19:19:15.109Z,97251.03
2023-01-24T19:21:43.487Z,97253.39
2023-01-24T19:24:11.589Z,97250.91
2023-01-24T19:26:39.853Z,97250.30
2023-01-24T19:29:07.797Z,97250.70
2023-01-24T19:31:35.982Z,97253.85
2023-01-24T19:34:05.661Z,97256.34
2023-01-24T19:36:34.365Z,97260.67
2023-01-24T19:39:03.392Z,97262.80
2023-01-24T19:41:31.338Z,97266.11
2023-01-24T19:46:49.235Z,97264.70
2023-01-24T19:49:18.269Z,97264.95
2023-01-24T19:51:46.407Z,97265.00
2023-01-24T19:54:14.829Z,97265.55
2023-01-24T19:56:42.845Z,97264.91
2023-01-24T19:59:10.989Z,97268.34
2023-01-24T20:01:39.001Z,97270.25
2023-01-24T20:04:22.556Z,97271.30
2023-01-24T20:06:54.167Z,97276.27
2023-01-24T20:09:23.914Z,97278.36
2023-01-24T20:11:52.943Z,97279.58
2023-01-24T20:14:21.079Z,97283.01
2023-01-24T20:16:49.582Z,97285.25
2023-01-24T20:19:28.024Z,97290.73
2023-01-24T20:21:58.792Z,97293.99
2023-01-24T20:24:27.609Z,97295.38
2023-01-24T20:26:55.609Z,97297.79
2023-01-24T20:29:25.206Z,97297.98
2023-01-24T20:31:54.604Z,97295.97
2023-01-24T20:34:24.000Z,97299.77
2023-01-24T20:36:52.688Z,97302.70
2023-01-24T20:39:21.547Z,97302.57
2023-01-24T20:41:50.942Z,97302.96
2023-01-24T20:44:27.068Z,97305.72
2023-01-24T20:46:58.470Z,97308.48
2023-01-24T20:49:26.805Z,97308.53
2023-01-24T20:51:55.696Z,97310.26
2023-01-24T20:54:24.404Z,97308.91
2023-01-24T20:56:57.667Z,97314.38
2023-01-24T20:59:29.475Z,97316.27
2023-01-24T21:01:57.479Z,97315.44
2023-01-24T21:04:25.921Z,97315.45
2023-01-24T21:06:53.858Z,97316.99
2023-01-24T21:09:22.834Z,97318.03
2023-01-24T21:11:51.446Z,97320.60
2023-01-24T21:14:22.678Z,97319.77
2023-01-24T21:16:50.812Z,97317.92
2023-01-24T21:19:19.570Z,97316.23
2023-01-24T21:21:49.293Z,97316.23
2023-01-24T21:24:34.355Z,97312.67
2023-01-24T21:27:03.379Z,97312.84
2023-01-24T21:29:31.668Z,97316.09
2023-01-24T21:32:01.068Z,97314.90
2023-01-24T21:34:29.380Z,97315.42
2023-01-24T21:36:58.044Z,97316.95
2023-01-24T21:39:26.539Z,97314.56
2023-01-24T21:41:55.404Z,97312.69
2023-01-24T21:44:31.442Z,97312.34
2023-01-24T21:47:04.220Z,97310.46
2023-01-24T21:49:32.531Z,97310.95
2023-01-24T21:52:01.955Z,97308.55
2023-01-24T21:54:32.578Z,97306.11
2023-01-24T21:57:31.248Z,97302.52
2023-01-24T22:00:04.272Z,97306.06
2023-01-24T22:02:42.499Z,97305.02
2023-01-24T22:05:11.227Z,97304.66
2023-01-24T22:07:39.379Z,97303.46
2023-01-24T22:10:08.173Z,97299.20
2023-01-24T22:12:36.716Z,97298.35
2023-01-24T22:15:05.513Z,97296.97
2023-01-24T22:17:34.877Z,97293.21
2023-01-24T22:20:03.146Z,97293.36
2023-01-24T22:23:00.542Z,97289.94
2023-01-24T22:25:36.493Z,97284.99
2023-01-24T22:28:04.743Z,97283.79
2023-01-24T22:30:34.643Z,97285.98
2023-01-24T22:33:02.816Z,97287.84
2023-01-24T22:35:30.984Z,97282.20
2023-01-24T22:38:01.162Z,97279.80
2023-01-24T22:40:29.523Z,97278.96
2023-01-24T22:42:58.669Z,97274.70
2023-01-24T22:45:28.641Z,97274.17
2023-01-24T22:47:57.398Z,97280.33
2023-01-24T22:50:25.421Z,97283.08
2023-01-24T22:52:53.598Z,97284.97
2023-01-24T22:55:21.576Z,97284.16
2023-01-24T22:57:49.513Z,97280.98
2023-01-24T23:00:17.950Z,97281.19
2023-01-24T23:02:45.845Z,97280.54
2023-01-24T23:05:14.020Z,97277.34
2023-01-24T23:07:42.096Z,97276.39
